Time;durP1;ratioP1;P1;durP2;ratioP2;P2;SDS_P1;SDS_P2;PMS_P1;PMS_P2;Temp;Humidity;BMP_temperature;BMP_pressure;BME280_temperature;BME280_humidity;BME280_pressure;Samples;Min_cycle;Max_cycle;Signal;HPM_P1;HPM_P2
2024/03/30 00:01:31;;;;;;;7.50;2.08;;;;;;;13.41;49.87;94056.06;5043816;28;20315;-85
2024/03/30 00:03:57;;;;;;;7.00;1.92;;;;;;;13.43;49.75;94053.06;5043427;28;20025;-84
2024/03/30 00:06:22;;;;;;;7.30;2.22;;;;;;;13.50;48.96;94055.22;5043489;28;20017;-84
2024/03/30 00:08:47;;;;;;;4.93;1.92;;;;;;;13.50;49.22;94063.25;5043319;28;20028;-84
2024/03/30 00:11:13;;;;;;;6.82;1.88;;;;;;;13.46;49.23;94052.41;5043443;28;20056;-85
2024/03/30 00:13:38;;;;;;;8.60;2.50;;;;;;;13.52;49.37;94058.38;5043522;28;20092;-86
2024/03/30 00:16:10;;;;;;;4.93;1.80;;;;;;;13.43;50.16;94056.53;5043540;28;20052;-85
2024/03/30 00:18:36;;;;;;;;;;;;;;;13.37;50.50;94057.84;5042402;28;20032;-85
2024/03/30 00:21:03;;;;;;;7.07;1.88;;;;;;;13.28;50.38;94051.72;5043539;28;19976;-85
2024/03/30 00:23:31;;;;;;;8.05;1.50;;;;;;;13.27;49.77;94068.91;5043378;28;20219;-85
2024/03/30 00:25:57;;;;;;;6.30;1.35;;;;;;;13.34;49.69;94055.03;5043166;28;20017;-85
2024/03/30 00:28:24;;;;;;;6.07;1.38;;;;;;;13.32;50.43;94070.63;5042958;28;20440;-85
2024/03/30 00:30:49;;;;;;;7.63;1.67;;;;;;;13.27;50.28;94058.19;5043044;28;20017;-84
2024/03/30 00:33:15;;;;;;;6.22;1.90;;;;;;;13.25;50.24;94063.88;5042945;28;20204;-84
2024/03/30 00:35:41;;;;;;;6.43;1.90;;;;;;;13.24;50.32;94053.47;5043134;28;20018;-84
2024/03/30 00:38:07;;;;;;;5.97;1.30;;;;;;;13.23;50.63;94051.91;5042926;28;20140;-84
2024/03/30 00:40:34;;;;;;;3.60;1.40;;;;;;;13.19;50.52;94059.03;5042579;28;20024;-86
2024/03/30 00:43:01;;;;;;;5.28;1.88;;;;;;;13.15;50.66;94061.56;5043183;28;20021;-86
2024/03/30 00:45:26;;;;;;;7.95;1.77;;;;;;;13.14;50.42;94048.50;5042750;28;20026;-85
2024/03/30 00:47:52;;;;;;;4.80;1.48;;;;;;;13.12;50.71;94050.72;5042871;28;20248;-86
2024/03/30 00:50:17;;;;;;;7.70;1.63;;;;;;;13.12;51.08;94046.13;5042528;28;20282;-85
2024/03/30 00:52:43;;;;;;;5.35;1.92;;;;;;;13.11;51.02;94044.59;5042486;28;20026;-86
2024/03/30 00:55:08;;;;;;;5.93;1.92;;;;;;;13.11;50.60;94049.13;5042551;28;20017;-85
2024/03/30 00:57:33;;;;;;;16.60;2.75;;;;;;;13.12;50.51;94045.34;5042555;28;20089;-85
2024/03/30 00:59:59;;;;;;;9.30;2.78;;;;;;;13.06;51.01;94047.44;5074849;28;20035;-85
2024/03/30 01:02:24;;;;;;;8.23;2.67;;;;;;;12.97;50.77;94036.78;5042400;28;20329;-85
2024/03/30 01:04:50;;;;;;;9.10;2.47;;;;;;;13.04;50.37;94031.69;5041361;28;20022;-85
2024/03/30 01:07:15;;;;;;;12.73;3.28;;;;;;;13.00;51.19;94030.78;5042376;28;20021;-85
2024/03/30 01:09:40;;;;;;;11.98;3.60;;;;;;;13.00;51.03;94022.75;5042551;28;20017;-85
2024/03/30 01:12:06;;;;;;;9.18;3.80;;;;;;;12.99;50.98;94029.22;5042527;28;20301;-85
2024/03/30 01:14:35;;;;;;;12.38;3.00;;;;;;;12.98;51.15;94027.63;5042479;28;20029;-85
2024/03/30 01:17:01;;;;;;;9.95;3.10;;;;;;;12.97;51.22;94018.06;5042643;28;20151;-85
2024/03/30 01:19:26;;;;;;;12.55;3.03;;;;;;;12.92;51.90;94022.81;5041704;28;20033;-84
2024/03/30 01:21:52;;;;;;;13.15;4.22;;;;;;;12.90;51.67;94023.13;5041391;28;20021;-83
2024/03/30 01:24:19;;;;;;;12.05;3.15;;;;;;;12.87;51.78;94033.69;5040879;28;20223;-83
2024/03/30 01:26:51;;;;;;;10.80;2.85;;;;;;;12.84;51.43;94027.91;5040997;28;20021;-83
2024/03/30 01:29:23;;;;;;;11.40;2.60;;;;;;;12.87;51.42;94023.78;5042266;28;20024;-83
2024/03/30 01:31:48;;;;;;;11.18;3.28;;;;;;;12.86;51.52;94027.53;5042204;28;20211;-83
2024/03/30 01:34:14;;;;;;;10.38;3.13;;;;;;;12.84;51.38;94025.22;5041396;28;20116;-83
2024/03/30 01:36:39;;;;;;;10.35;3.42;;;;;;;12.87;51.31;94029.13;5042605;28;20049;-84
2024/03/30 01:39:05;;;;;;;11.50;3.10;;;;;;;12.88;50.99;94019.22;5042318;28;20032;-83
2024/03/30 01:41:30;;;;;;;11.48;2.72;;;;;;;12.93;50.83;94016.34;5042513;28;20074;-85
2024/03/30 01:43:56;;;;;;;12.82;2.95;;;;;;;12.97;51.21;94018.06;5042017;28;20331;-84
2024/03/30 01:46:21;;;;;;;20.95;4.30;;;;;;;12.97;51.66;94020.72;5042387;28;20040;-84
2024/03/30 01:48:48;;;;;;;15.77;3.63;;;;;;;12.88;51.95;94021.88;5042350;28;20326;-84
2024/03/30 01:51:13;;;;;;;13.18;3.03;;;;;;;12.86;51.70;94016.84;5041397;28;20028;-84
2024/03/30 01:53:39;;;;;;;12.70;3.17;;;;;;;12.86;51.85;94011.50;5044722;28;20045;-84
2024/03/30 01:56:05;;;;;;;6.15;1.85;;;;;;;12.89;51.47;94021.56;5045989;28;20127;-84
2024/03/30 01:58:31;;;;;;;3.65;1.25;;;;;;;12.88;50.10;94014.63;5045071;28;20463;-84
2024/03/30 02:00:57;;;;;;;6.88;2.20;;;;;;;12.88;50.82;94013.84;5044788;28;20230;-84
2024/03/30 02:03:24;;;;;;;6.35;1.40;;;;;;;12.92;50.62;94026.25;5045647;28;20021;-85
2024/03/30 02:05:52;;;;;;;7.38;1.90;;;;;;;12.90;51.04;94022.34;5045862;28;20078;-84
2024/03/30 02:08:19;;;;;;;4.72;1.75;;;;;;;12.86;51.20;94019.53;5044512;28;20022;-84
2024/03/30 02:10:46;;;;;;;6.35;1.95;;;;;;;12.86;51.99;94019.53;5044431;28;20059;-84
2024/03/30 02:13:13;;;;;;;8.75;1.90;;;;;;;12.82;51.93;94019.41;5045523;28;20025;-84
2024/03/30 02:15:38;;;;;;;5.13;1.90;;;;;;;12.84;51.45;94016.38;5044775;28;20021;-79
2024/03/30 02:18:04;;;;;;;6.13;1.80;;;;;;;12.81;51.30;94022.41;5045391;28;20026;-79
2024/03/30 02:20:29;;;;;;;10.70;3.10;;;;;;;12.78;51.50;94031.84;5045473;28;20029;-79
2024/03/30 02:22:55;;;;;;;4.53;1.70;;;;;;;12.80;51.30;94021.63;5045274;28;20018;-79
2024/03/30 02:25:22;;;;;;;7.03;1.73;;;;;;;12.80;50.97;94020.81;5045320;28;20104;-79
2024/03/30 02:27:48;;;;;;;4.07;1.35;;;;;;;12.81;51.05;94025.84;5045129;28;20040;-79
2024/03/30 02:30:22;;;;;;;6.20;1.70;;;;;;;12.77;51.60;94030.28;5045113;28;20040;-78
2024/03/30 02:32:49;;;;;;;5.07;1.90;;;;;;;12.74;51.59;94032.81;5044962;28;20052;-78
2024/03/30 02:35:14;;;;;;;2.92;1.33;;;;;;;12.77;51.23;94026.81;5045218;28;20021;-79
2024/03/30 02:37:40;;;;;;;5.43;1.70;;;;;;;12.70;51.66;94035.34;5045060;28;20318;-79
2024/03/30 02:40:07;;;;;;;10.77;2.30;;;;;;;12.59;52.24;94037.59;5044797;28;20149;-79
2024/03/30 02:42:34;;;;;;;6.00;1.92;;;;;;;12.64;52.56;94039.31;5045138;28;20067;-79
2024/03/30 02:44:59;;;;;;;7.72;1.83;;;;;;;12.62;52.35;94044.19;5045075;28;20082;-78
2024/03/30 02:47:24;;;;;;;5.35;2.05;;;;;;;12.60;52.61;94049.88;5045035;28;20025;-78
2024/03/30 02:49:50;;;;;;;6.88;1.83;;;;;;;12.57;52.86;94058.50;5044890;28;20017;-79
2024/03/30 02:52:15;;;;;;;9.20;1.70;;;;;;;12.49;53.10;94051.31;5044879;28;20060;-78
2024/03/30 02:54:40;;;;;;;5.13;2.00;;;;;;;12.51;53.12;94048.31;5044687;28;20058;-79
2024/03/30 02:57:06;;;;;;;4.88;2.00;;;;;;;12.49;53.14;94045.97;5044682;28;20238;-79
2024/03/30 02:59:31;;;;;;;11.98;2.60;;;;;;;12.48;53.54;94041.72;5044781;28;20017;-79
2024/03/30 03:01:57;;;;;;;6.97;2.20;;;;;;;12.50;53.80;94041.41;5044355;28;20361;-79
2024/03/30 03:04:22;;;;;;;5.57;2.03;;;;;;;12.45;53.93;94037.00;5044580;28;20086;-78
2024/03/30 03:06:47;;;;;;;6.55;2.80;;;;;;;12.43;54.23;94041.88;5044311;28;20017;-78
2024/03/30 03:09:13;;;;;;;7.88;2.60;;;;;;;12.38;54.85;94037.50;5044289;28;20016;-80
2024/03/30 03:11:38;;;;;;;10.80;2.90;;;;;;;12.36;54.95;94053.09;5043220;28;20025;-79
2024/03/30 03:14:04;;;;;;;16.33;2.97;;;;;;;12.30;55.91;94042.88;5044369;28;20030;-78
2024/03/30 03:16:29;;;;;;;7.55;2.40;;;;;;;12.06;56.56;94044.19;5044616;28;20119;-79
2024/03/30 03:18:55;;;;;;;7.78;2.50;;;;;;;11.99;56.25;94034.00;5044312;28;20032;-79
2024/03/30 03:21:20;;;;;;;9.30;2.25;;;;;;;12.03;56.19;94039.50;5044209;28;20021;-79
2024/03/30 03:23:45;;;;;;;4.57;1.88;;;;;;;11.95;56.39;94037.63;5044358;28;20029;-80
2024/03/30 03:26:11;;;;;;;8.20;2.22;;;;;;;11.90;56.36;94033.22;5044258;28;20052;-80
2024/03/30 03:28:36;;;;;;;4.22;1.92;;;;;;;11.90;56.07;94024.41;5044339;28;20043;-79
2024/03/30 03:31:02;;;;;;;6.78;1.80;;;;;;;11.88;55.99;94026.59;5044163;28;20025;-79
2024/03/30 03:33:27;;;;;;;5.78;2.08;;;;;;;11.79;56.09;94024.72;5043837;28;20212;-79
2024/03/30 03:35:54;;;;;;;5.18;2.10;;;;;;;11.79;56.47;94021.28;5043903;28;20075;-79
2024/03/30 03:38:20;;;;;;;4.88;1.80;;;;;;;11.78;56.56;94027.69;5043758;28;20109;-79
2024/03/30 03:40:45;;;;;;;8.85;3.67;;;;;;;11.73;56.60;94031.31;5042671;28;20025;-79
2024/03/30 03:43:10;;;;;;;8.50;3.20;;;;;;;11.69;56.09;94040.28;5043851;28;20310;-78
2024/03/30 03:45:36;;;;;;;7.15;3.17;;;;;;;11.70;56.08;94034.63;5043705;28;20049;-79
2024/03/30 03:48:01;;;;;;;11.45;3.70;;;;;;;11.74;56.09;94040.09;5043920;28;20047;-79
2024/03/30 03:50:27;;;;;;;9.18;2.97;;;;;;;11.71;56.03;94032.75;5075880;28;20071;-79
2024/03/30 03:52:52;;;;;;;9.10;2.58;;;;;;;11.69;56.37;94038.41;5043685;28;20032;-78
2024/03/30 03:55:17;;;;;;;7.70;3.10;;;;;;;11.68;56.09;94042.16;5043722;28;20029;-79
2024/03/30 03:57:43;;;;;;;12.10;3.47;;;;;;;11.71;56.29;94033.53;5043679;28;20089;-80
2024/03/30 04:00:09;;;;;;;11.88;3.70;;;;;;;11.64;56.82;94039.34;5043442;28;20124;-77
2024/03/30 04:02:34;;;;;;;11.65;5.03;;;;;;;11.63;56.89;94031.66;5043466;28;20063;-78
2024/03/30 04:04:59;;;;;;;13.55;5.35;;;;;;;11.63;56.90;94037.75;5043705;28;20018;-78
2024/03/30 04:07:25;;;;;;;12.90;4.88;;;;;;;11.65;56.74;94035.56;5043370;28;20074;-79
2024/03/30 04:09:51;;;;;;;12.68;4.70;;;;;;;11.68;56.47;94046.72;5043218;28;20017;-80
2024/03/30 04:12:16;;;;;;;9.60;4.50;;;;;;;11.64;56.95;94044.69;5042299;28;20097;-80
2024/03/30 04:14:42;;;;;;;9.55;4.68;;;;;;;11.66;57.18;94047.03;5042653;28;20306;-79
2024/03/30 04:17:07;;;;;;;16.05;4.43;;;;;;;11.70;57.11;94052.53;5043397;28;20104;-79
2024/03/30 04:19:33;;;;;;;16.85;3.97;;;;;;;11.67;56.85;94053.94;5043546;28;20029;-79
2024/03/30 04:21:59;;;;;;;12.50;3.72;;;;;;;11.66;56.79;94044.34;5043099;28;20041;-79
2024/03/30 04:24:24;;;;;;;8.85;2.80;;;;;;;11.69;56.46;94050.97;5042961;28;20079;-80
2024/03/30 04:26:50;;;;;;;9.38;1.83;;;;;;;11.63;56.70;94047.66;5043138;28;20029;-80
2024/03/30 04:29:15;;;;;;;13.35;2.30;;;;;;;11.61;56.56;94057.88;5043118;28;20022;-79
2024/03/30 04:31:40;;;;;;;4.53;2.05;;;;;;;11.53;57.36;94054.09;5043017;28;20041;-80
2024/03/30 04:34:06;;;;;;;11.77;2.83;;;;;;;11.56;57.69;94044.66;5042525;28;20321;-80
2024/03/30 04:36:31;;;;;;;10.07;2.53;;;;;;;11.55;57.57;94037.78;5043060;28;20029;-80
2024/03/30 04:38:56;;;;;;;9.07;2.30;;;;;;;11.56;57.91;94029.47;5042916;28;20338;-80
2024/03/30 04:41:22;;;;;;;11.57;2.38;;;;;;;11.58;57.70;94040.59;5043205;28;20017;-81
2024/03/30 04:43:47;;;;;;;8.68;2.25;;;;;;;11.61;57.62;94037.28;5042833;28;20063;-81
2024/03/30 04:46:13;;;;;;;6.60;1.98;;;;;;;11.68;57.81;94038.69;5042532;28;20017;-81
2024/03/30 04:48:38;;;;;;;9.13;1.92;;;;;;;11.71;58.41;94041.53;5042750;28;20029;-80
2024/03/30 04:51:04;;;;;;;8.30;2.22;;;;;;;11.75;58.67;94045.16;5042848;28;20094;-79
2024/03/30 04:53:32;;;;;;;14.35;3.92;;;;;;;11.79;58.85;94058.66;5042893;28;20039;-79
2024/03/30 04:56:00;;;;;;;8.70;3.30;;;;;;;11.79;58.56;94037.28;5042838;28;20021;-79
2024/03/30 04:58:27;;;;;;;25.13;3.45;;;;;;;11.80;58.62;94047.63;5042630;28;20033;-79
2024/03/30 05:00:54;;;;;;;14.82;3.97;;;;;;;11.82;58.36;94050.81;5042569;28;20076;-79
2024/03/30 05:03:19;;;;;;;10.48;3.17;;;;;;;11.85;58.33;94044.81;5042542;28;20032;-79
2024/03/30 05:05:46;;;;;;;9.55;2.95;;;;;;;11.83;58.45;94060.38;5042503;28;20021;-79
2024/03/30 05:08:12;;;;;;;19.90;5.13;;;;;;;11.80;58.99;94065.56;5041165;28;20056;-79
2024/03/30 05:10:39;;;;;;;11.88;3.20;;;;;;;11.83;58.77;94063.03;5042385;28;20101;-80
2024/03/30 05:13:05;;;;;;;11.57;3.92;;;;;;;11.90;58.70;94062.59;5042660;28;20032;-81
2024/03/30 05:15:41;;;;;;;10.93;3.47;;;;;;;11.93;58.76;94066.53;5042665;28;20092;-81
2024/03/30 05:18:10;;;;;;;16.05;3.80;;;;;;;12.02;58.63;94067.28;5042585;28;20043;-80
2024/03/30 05:20:49;;;;;;;11.98;3.33;;;;;;;12.11;58.87;94065.41;5042275;28;20254;-81
2024/03/30 05:23:25;;;;;;;17.40;3.63;;;;;;;12.20;58.71;94065.38;5042391;28;20036;-81
2024/03/30 05:25:52;;;;;;;16.58;3.13;;;;;;;12.28;58.54;94059.25;5043696;28;20025;-79
2024/03/30 05:28:19;;;;;;;8.52;4.25;;;;;;;12.37;58.56;94072.56;5046399;28;20032;-79
2024/03/30 05:30:47;;;;;;;26.90;4.95;;;;;;;12.48;58.73;94071.13;5046288;28;20219;-80
2024/03/30 05:33:13;;;;;;;34.13;13.13;;;;;;;12.57;58.55;94073.78;5046112;28;20053;-80
2024/03/30 05:35:39;;;;;;;32.22;11.55;;;;;;;12.55;59.01;94076.75;5046315;28;20059;-79
2024/03/30 05:38:05;;;;;;;17.80;7.25;;;;;;;12.57;59.17;94079.91;5046008;28;20033;-79
2024/03/30 05:40:34;;;;;;;14.15;7.72;;;;;;;12.54;58.91;94080.56;5046078;28;20033;-80
2024/03/30 05:43:04;;;;;;;21.77;8.68;;;;;;;12.59;59.12;94068.91;5046507;28;20029;-80
2024/03/30 05:45:34;;;;;;;22.63;8.05;;;;;;;12.71;58.98;94078.91;5046256;28;20022;-91
2024/03/30 05:48:00;;;;;;;20.65;7.15;;;;;;;12.88;58.58;94073.47;5046773;28;20037;-81
2024/03/30 05:50:26;;;;;;;26.10;9.25;;;;;;;13.02;58.12;94068.69;5046276;28;20013;-81
2024/03/30 05:52:53;;;;;;;21.58;8.25;;;;;;;13.07;57.95;94067.75;5045508;28;20017;-81
2024/03/30 05:55:18;;;;;;;19.92;9.02;;;;;;;13.19;58.20;94067.06;5045419;28;20021;-81
2024/03/30 05:57:44;;;;;;;19.20;7.30;;;;;;;13.29;57.35;94063.19;5046306;28;20017;-81
2024/03/30 06:00:11;;;;;;;17.27;7.35;;;;;;;13.36;56.47;94069.63;5046241;28;20204;-82
2024/03/30 06:02:45;;;;;;;14.88;6.18;;;;;;;13.51;56.29;94064.81;5046515;28;20024;-82
2024/03/30 06:05:12;;;;;;;12.35;5.32;;;;;;;13.62;55.30;94063.34;5046414;28;20017;-82
2024/03/30 06:07:38;;;;;;;18.05;5.20;;;;;;;13.76;54.48;94063.84;5045278;28;20318;-82
2024/03/30 06:10:04;;;;;;;17.55;5.13;;;;;;;13.87;54.20;94060.78;5046529;28;20040;-83
2024/03/30 06:12:30;;;;;;;19.02;4.72;;;;;;;13.99;53.88;94060.81;5045478;28;20104;-85
2024/03/30 06:14:56;;;;;;;15.75;5.35;;;;;;;14.09;53.79;94060.41;5046464;28;20045;-83
2024/03/30 06:17:21;;;;;;;30.17;5.68;;;;;;;14.20;53.31;94072.28;5046485;28;20215;-84
2024/03/30 06:19:47;;;;;;;15.85;4.43;;;;;;;14.31;52.77;94067.28;5046275;28;20044;-84
2024/03/30 06:22:12;;;;;;;13.88;4.47;;;;;;;14.40;52.68;94062.63;5046248;28;20025;-84
2024/03/30 06:24:39;;;;;;;18.85;4.70;;;;;;;14.49;52.57;94056.38;5046201;28;20085;-84
2024/03/30 06:27:08;;;;;;;16.08;4.75;;;;;;;14.57;52.22;94063.56;5046090;28;20021;-85
2024/03/30 06:29:34;;;;;;;15.18;4.72;;;;;;;14.63;52.04;94062.25;5046788;28;20029;-85
2024/03/30 06:32:00;;;;;;;13.85;4.07;;;;;;;14.70;51.90;94064.38;5046292;28;20021;-84
2024/03/30 06:34:25;;;;;;;23.92;5.95;;;;;;;14.78;52.58;94063.50;5046232;28;20049;-84
2024/03/30 06:36:51;;;;;;;12.50;4.88;;;;;;;14.85;52.62;94059.13;5045692;28;20080;-85
2024/03/30 06:39:17;;;;;;;16.65;4.43;;;;;;;14.95;52.85;94057.91;5045727;28;20052;-84
2024/03/30 06:44:26;;;;;;;15.32;5.07;;;;;;;15.11;52.40;94060.72;5046266;28;20071;-83
2024/03/30 06:46:51;;;;;;;12.93;4.28;;;;;;;15.20;51.49;94063.25;5045607;28;20093;-83
2024/03/30 06:49:17;;;;;;;14.10;3.13;;;;;;;15.23;49.65;94068.75;5045938;28;20013;-83
2024/03/30 06:51:42;;;;;;;12.98;3.63;;;;;;;15.22;48.15;94066.41;5046015;28;20021;-83
2024/03/30 06:54:07;;;;;;;15.30;3.72;;;;;;;15.28;48.17;94072.31;5045998;28;20097;-85
2024/03/30 06:56:33;;;;;;;28.00;4.72;;;;;;;15.36;47.89;94074.09;5046240;28;20018;-83
2024/03/30 06:58:58;;;;;;;20.33;5.30;;;;;;;15.40;49.32;94073.09;5046133;28;20025;-84
2024/03/30 07:01:25;;;;;;;9.77;4.55;;;;;;;15.42;49.18;94064.69;5045908;28;20072;-83
2024/03/30 07:03:51;;;;;;;13.45;3.78;;;;;;;15.44;47.99;94079.34;5045741;28;20104;-83
2024/03/30 07:06:16;;;;;;;19.55;3.90;;;;;;;15.39;48.13;94066.16;5045823;28;20029;-83
2024/03/30 07:08:42;;;;;;;20.42;4.90;;;;;;;15.43;48.65;94067.06;5045560;28;20029;-83
2024/03/30 07:11:07;;;;;;;9.75;3.83;;;;;;;15.50;48.25;94076.44;5046105;28;20049;-84
2024/03/30 07:13:33;;;;;;;8.25;2.80;;;;;;;15.54;47.65;94078.13;5047316;28;20096;-88
2024/03/30 07:15:59;;;;;;;12.32;3.28;;;;;;;15.63;47.29;94064.53;5045547;28;20021;-80
2024/03/30 07:18:24;;;;;;;10.85;3.13;;;;;;;15.74;48.02;94081.03;5044957;28;20056;-82
2024/03/30 07:20:50;;;;;;;11.55;3.00;;;;;;;15.82;46.33;94078.19;5044877;28;20283;-82
2024/03/30 07:23:16;;;;;;;10.02;3.28;;;;;;;15.90;46.17;94087.25;5044993;28;20052;-80
2024/03/30 07:25:41;;;;;;;12.00;4.25;;;;;;;15.86;46.55;94086.38;5044810;28;20017;-80
2024/03/30 07:28:07;;;;;;;79.25;34.42;;;;;;;15.95;45.42;94091.59;5044887;28;20018;-77
2024/03/30 07:30:36;;;;;;;47.42;18.27;;;;;;;16.01;45.68;94085.63;5044648;28;20025;-78
2024/03/30 07:33:01;;;;;;;17.63;6.03;;;;;;;16.07;45.81;94085.41;5044595;28;20037;-78
2024/03/30 07:35:26;;;;;;;10.50;4.38;;;;;;;16.14;45.95;94089.06;5044430;28;20315;-78
2024/03/30 07:37:52;;;;;;;18.40;5.95;;;;;;;16.22;45.23;94090.84;5044429;28;20092;-78
2024/03/30 07:40:17;;;;;;;19.90;5.72;;;;;;;16.34;45.04;94094.56;5044294;28;20048;-78
2024/03/30 07:42:43;;;;;;;14.90;4.18;;;;;;;16.42;45.49;94099.03;5044385;28;20064;-78
2024/03/30 07:45:08;;;;;;;12.27;4.05;;;;;;;16.48;45.02;94094.97;5044307;28;20238;-78
2024/03/30 07:47:33;;;;;;;12.10;3.45;;;;;;;16.56;44.07;94088.63;5044493;28;20017;-79
2024/03/30 07:49:59;;;;;;;14.43;2.55;;;;;;;16.65;43.08;94091.97;5042038;28;20068;-79
2024/03/30 07:52:24;;;;;;;9.82;2.60;;;;;;;16.65;42.15;94091.19;5044223;28;20067;-78
2024/03/30 07:54:49;;;;;;;10.45;2.63;;;;;;;16.73;41.77;94094.81;5043883;28;20354;-79
2024/03/30 07:57:15;;;;;;;13.40;2.08;;;;;;;16.77;41.97;94079.53;5044085;28;20100;-76
2024/03/30 07:59:40;;;;;;;30.00;3.70;;;;;;;16.81;42.16;94089.31;5043814;28;20319;-78
2024/03/30 08:02:06;;;;;;;13.10;2.55;;;;;;;16.90;41.63;94086.44;5043770;28;20080;-78
2024/03/30 08:04:31;;;;;;;14.88;2.00;;;;;;;16.95;41.65;94080.00;5044227;28;20420;-77
2024/03/30 08:06:56;;;;;;;10.13;2.38;;;;;;;17.03;42.38;94079.84;5043852;28;20021;-78
2024/03/30 08:09:22;;;;;;;7.55;2.10;;;;;;;17.15;41.94;94075.50;5043505;28;20239;-78
2024/03/30 08:11:48;;;;;;;11.82;2.05;;;;;;;17.27;41.43;94083.47;5043690;28;20025;-78
2024/03/30 08:14:19;;;;;;;18.10;2.78;;;;;;;17.42;40.40;94085.38;5043796;28;20223;-78
2024/03/30 08:16:45;;;;;;;14.35;1.92;;;;;;;17.54;39.71;94078.28;5043690;28;20018;-78
2024/03/30 08:19:10;;;;;;;9.35;2.55;;;;;;;17.62;39.05;94075.41;5043488;28;20235;-78
2024/03/30 08:21:37;;;;;;;5.38;1.38;;;;;;;17.73;39.22;94072.94;5043558;28;20022;-79
2024/03/30 08:24:02;;;;;;;17.95;1.92;;;;;;;17.83;39.74;94072.44;5043871;28;20128;-79
2024/03/30 08:26:28;;;;;;;9.57;2.03;;;;;;;17.88;39.45;94073.28;5043518;28;20021;-79
2024/03/30 08:28:53;;;;;;;17.05;2.28;;;;;;;17.93;40.62;94070.28;5043167;28;20048;-78
2024/03/30 08:31:19;;;;;;;9.85;2.60;;;;;;;18.01;40.11;94069.28;5043458;28;20037;-79
2024/03/30 08:33:45;;;;;;;10.15;2.30;;;;;;;18.09;39.79;94062.91;5043388;28;20080;-79
2024/03/30 08:36:11;;;;;;;8.68;2.97;;;;;;;18.17;39.83;94072.69;5043722;28;20084;-85
2024/03/30 08:38:36;;;;;;;10.68;2.15;;;;;;;18.22;39.94;94060.88;5043015;28;20033;-85
2024/03/30 08:41:01;;;;;;;8.65;2.50;;;;;;;18.31;39.46;94058.72;5043146;28;20097;-84
2024/03/30 08:43:27;;;;;;;7.72;1.65;;;;;;;18.37;39.10;94056.50;5043028;28;20298;-84
2024/03/30 08:45:53;;;;;;;8.85;2.17;;;;;;;18.45;38.40;94053.56;5042878;28;20031;-85
2024/03/30 08:48:19;;;;;;;7.82;2.85;;;;;;;18.53;38.32;94054.50;5042723;28;20071;-85
2024/03/30 08:50:44;;;;;;;13.52;2.58;;;;;;;18.60;38.15;94053.81;5042880;28;20021;-85
2024/03/30 08:53:10;;;;;;;17.00;2.05;;;;;;;18.51;38.88;94045.97;5042792;28;20029;-85
2024/03/30 08:55:37;;;;;;;8.40;2.15;;;;;;;18.60;38.19;94043.03;5043035;28;20037;-85
2024/03/30 08:58:04;;;;;;;10.45;2.08;;;;;;;18.65;38.19;94046.22;5042519;28;20092;-84
2024/03/30 09:00:30;;;;;;;7.28;1.85;;;;;;;18.71;37.89;94040.53;5041331;28;20125;-84
2024/03/30 09:02:55;;;;;;;6.65;1.83;;;;;;;18.83;37.25;94032.28;5041769;28;20040;-84
2024/03/30 09:05:22;;;;;;;11.70;2.28;;;;;;;18.92;37.49;94026.63;5043006;28;20320;-84
2024/03/30 09:07:47;;;;;;;18.88;3.53;;;;;;;19.02;38.02;94026.78;5043402;28;20025;-84
2024/03/30 09:10:13;;;;;;;11.88;2.65;;;;;;;19.13;37.43;94020.75;5043560;28;20085;-84
2024/03/30 09:12:38;;;;;;;13.15;2.30;;;;;;;19.22;37.54;94029.41;5043334;28;20041;-83
2024/03/30 09:15:04;;;;;;;9.75;2.47;;;;;;;19.30;36.86;94025.66;5042845;28;20131;-83
2024/03/30 09:17:30;;;;;;;15.80;3.00;;;;;;;19.40;36.21;94014.22;5042960;28;20083;-83
2024/03/30 09:19:56;;;;;;;15.15;3.15;;;;;;;19.54;36.46;94015.56;5041658;28;20029;-83
2024/03/30 09:22:23;;;;;;;17.45;2.47;;;;;;;19.55;36.09;94015.19;5043228;28;20393;-83
2024/03/30 09:24:50;;;;;;;5.97;2.08;;;;;;;19.59;36.63;94015.25;5043082;28;20056;-84
2024/03/30 09:27:16;;;;;;;13.15;2.63;;;;;;;19.65;35.37;94014.56;5043507;28;20034;-86
2024/03/30 09:29:41;;;;;;;11.20;2.42;;;;;;;19.75;35.55;94009.69;5042899;28;20365;-87
2024/03/30 09:32:06;;;;;;;15.68;2.35;;;;;;;19.76;36.08;94014.75;5043776;28;20026;-85
2024/03/30 09:34:32;;;;;;;14.98;2.30;;;;;;;19.90;36.51;94008.69;5043100;28;20128;-85
2024/03/30 09:36:57;;;;;;;10.20;2.80;;;;;;;19.97;35.53;94010.72;5042104;28;20315;-86
2024/03/30 09:39:23;;;;;;;11.50;2.08;;;;;;;20.03;35.00;94006.56;5042661;28;20041;-85
2024/03/30 09:41:55;;;;;;;15.52;2.75;;;;;;;20.10;35.98;94006.63;5043775;28;20033;-92
2024/03/30 09:44:20;;;;;;;10.60;2.80;;;;;;;20.22;36.21;94002.88;5044592;28;20032;-84
2024/03/30 09:46:48;;;;;;;7.18;2.50;;;;;;;20.34;34.06;94005.31;5042347;28;20204;-84
2024/03/30 09:49:15;;;;;;;9.15;1.80;;;;;;;20.41;34.45;94004.63;5042706;28;20052;-87
2024/03/30 09:51:43;;;;;;;7.65;1.70;;;;;;;20.52;34.68;93999.31;5042246;28;20057;-77
2024/03/30 09:54:11;;;;;;;11.70;2.10;;;;;;;20.63;34.40;93989.38;5042025;28;20053;-77
2024/03/30 09:56:42;;;;;;;13.90;2.33;;;;;;;20.75;34.73;93982.91;5042329;28;20083;-77
2024/03/30 09:59:10;;;;;;;4.30;1.65;;;;;;;20.85;34.86;93982.22;5041780;28;20056;-77
2024/03/30 10:01:36;;;;;;;7.30;1.58;;;;;;;21.01;33.95;93971.88;5041929;28;20017;-77
2024/03/30 10:04:01;;;;;;;5.63;1.75;;;;;;;21.08;33.41;93968.44;5041313;28;20040;-76
2024/03/30 10:06:29;;;;;;;6.53;1.55;;;;;;;21.03;33.17;93966.88;5042157;28;20377;-77
2024/03/30 10:09:02;;;;;;;8.73;1.80;;;;;;;21.01;33.13;93963.75;5041995;28;20025;-77
2024/03/30 10:11:30;;;;;;;9.57;1.50;;;;;;;21.13;33.60;93962.69;5042314;28;20026;-76
2024/03/30 10:14:26;;;;;;;7.82;1.55;;;;;;;21.26;33.11;93955.00;5044857;28;20231;-77
2024/03/30 10:16:51;;;;;;;7.93;2.05;;;;;;;21.34;33.13;93959.31;5045649;28;20025;-77
2024/03/30 10:19:19;;;;;;;7.18;1.50;;;;;;;21.35;32.47;93958.16;5045448;28;20354;-77
2024/03/30 10:21:45;;;;;;;12.57;2.10;;;;;;;21.41;33.33;93962.06;5045434;28;20399;-77
2024/03/30 10:24:12;;;;;;;9.48;1.90;;;;;;;21.50;32.98;93961.75;5045591;28;20017;-77
2024/03/30 10:26:38;;;;;;;8.38;1.90;;;;;;;21.64;33.25;93958.34;5045600;28;20033;-77
2024/03/30 10:29:06;;;;;;;14.85;2.35;;;;;;;21.72;32.55;93940.94;5045349;28;20024;-77
2024/03/30 10:31:32;;;;;;;8.38;2.25;;;;;;;21.87;33.18;93936.31;5045743;28;20072;-77
2024/03/30 10:34:00;;;;;;;8.45;2.30;;;;;;;21.97;33.33;93940.22;5045235;28;20346;-77
2024/03/30 10:36:29;;;;;;;13.10;2.40;;;;;;;22.05;32.74;93933.66;5045047;28;20085;-77
2024/03/30 10:38:56;;;;;;;5.75;1.45;;;;;;;22.14;32.12;93936.00;5045120;28;20219;-77
2024/03/30 10:41:28;;;;;;;12.15;2.13;;;;;;;22.03;31.81;93933.28;5045089;28;20033;-76
2024/03/30 10:43:54;;;;;;;13.95;3.72;;;;;;;22.12;32.48;93928.25;5045273;28;20064;-77
2024/03/30 10:46:19;;;;;;;17.05;2.10;;;;;;;22.12;31.76;93917.38;5045221;28;20291;-79
2024/03/30 10:48:45;;;;;;;7.53;2.22;;;;;;;22.19;32.02;93916.63;5045051;28;20021;-82
2024/03/30 10:51:11;;;;;;;13.25;2.03;;;;;;;22.30;32.96;93912.00;5045051;28;20052;-78
2024/03/30 10:53:37;;;;;;;9.02;1.88;;;;;;;22.41;32.52;93909.31;5045755;28;20017;-89
2024/03/30 10:56:02;;;;;;;6.97;1.75;;;;;;;22.48;31.35;93906.59;5045848;28;20017;-88
2024/03/30 10:58:30;;;;;;;7.30;1.30;;;;;;;22.46;31.02;93902.72;5044383;28;20017;-88
2024/03/30 11:00:57;;;;;;;11.57;1.80;;;;;;;22.47;30.99;93901.56;5045510;28;20071;-88
2024/03/30 11:03:24;;;;;;;10.00;2.17;;;;;;;22.50;30.25;93898.06;5045442;28;20088;-89
2024/03/30 11:05:52;;;;;;;11.63;2.55;;;;;;;22.56;30.95;93896.53;5043192;28;20025;-90
2024/03/30 11:08:19;;;;;;;12.82;1.92;;;;;;;22.70;32.25;93895.75;5044119;28;20025;-88
2024/03/30 11:10:44;;;;;;;9.50;1.60;;;;;;;22.81;31.72;93880.19;5042440;28;20021;-89
2024/03/30 11:13:10;;;;;;;6.78;1.88;;;;;;;22.73;30.88;93882.13;5043623;28;20101;-90
2024/03/30 11:15:40;;;;;;;12.98;2.00;;;;;;;22.89;31.34;93879.00;5043327;28;20035;-89
2024/03/30 11:18:15;;;;;;;7.20;1.70;;;;;;;23.11;30.90;93882.50;5043804;28;20021;-90
2024/03/30 11:21:14;;;;;;;6.25;1.80;;;;;;;23.29;30.18;93882.44;5044132;28;20048;-89
2024/03/30 11:23:58;;;;;;;11.50;2.30;;;;;;;23.49;31.30;93871.91;5042679;28;20207;-89
2024/03/30 11:26:24;;;;;;;20.35;2.42;;;;;;;23.64;29.95;93869.88;5043585;28;20033;-89
2024/03/30 11:29:09;;;;;;;11.77;2.08;;;;;;;23.80;31.00;93855.84;5043701;28;20021;-90